createdAt,value
2022-10-02T00:03:43.226Z,1013.1
2022-10-02T00:08:42.738Z,1013.1
2022-10-02T00:13:42.300Z,1013.2
2022-10-02T00:18:42.384Z,1013.2
2022-10-02T00:23:43.733Z,1013.2
2022-10-02T00:28:42.351Z,1013.3
2022-10-02T00:33:42.307Z,1013.4
2022-10-02T00:38:42.304Z,1013.3
2022-10-02T00:43:42.337Z,1013.5
2022-10-02T00:48:42.435Z,1013.5
2022-10-02T00:53:42.287Z,1013.6
2022-10-02T00:58:42.281Z,1013.5
2022-10-02T01:03:42.433Z,1013.5
2022-10-02T01:08:42.279Z,1013.5
2022-10-02T01:13:42.277Z,1013.7
2022-10-02T01:18:42.417Z,1013.7
2022-10-02T01:23:42.298Z,1013.7
2022-10-02T01:28:42.243Z,1013.8
2022-10-02T01:33:42.501Z,1013.8
2022-10-02T01:38:43.247Z,1013.8
2022-10-02T01:43:42.246Z,1013.9
2022-10-02T01:48:42.204Z,1014.0
2022-10-02T01:53:42.169Z,1014.0
2022-10-02T01:58:42.151Z,1014.1
2022-10-02T02:03:42.286Z,1014.2
2022-10-02T02:08:42.170Z,1014.2
2022-10-02T02:13:42.222Z,1014.3
2022-10-02T02:18:42.269Z,1014.3
2022-10-02T02:23:42.140Z,1014.3
2022-10-02T02:28:42.187Z,1014.4
2022-10-02T02:33:42.311Z,1014.4
2022-10-02T02:38:42.102Z,1014.3
2022-10-02T02:43:42.164Z,1014.4
2022-10-02T02:48:42.267Z,1014.4
2022-10-02T02:53:42.152Z,1014.4
2022-10-02T02:58:43.632Z,1014.5
2022-10-02T03:03:42.170Z,1014.5
2022-10-02T03:08:42.250Z,1014.6
2022-10-02T03:13:42.274Z,1014.6
2022-10-02T03:18:42.000Z,1014.6
2022-10-02T03:23:42.067Z,1014.7
2022-10-02T03:28:55.665Z,1014.7
2022-10-02T03:33:42.078Z,1014.8
2022-10-02T03:38:41.989Z,1014.8
2022-10-02T03:43:42.150Z,1014.9
2022-10-02T03:48:42.083Z,1015.0
2022-10-02T03:53:42.067Z,1015.1
2022-10-02T03:58:41.922Z,1015.0
2022-10-02T04:03:41.992Z,1015.1
2022-10-02T04:08:41.930Z,1015.1
2022-10-02T04:13:42.433Z,1015.3
2022-10-02T04:18:42.022Z,1015.3
2022-10-02T04:23:42.067Z,1015.4
2022-10-02T04:28:42.146Z,1015.5
2022-10-02T04:33:42.012Z,1015.5
2022-10-02T04:38:42.020Z,1015.6
2022-10-02T04:43:42.197Z,1015.8
2022-10-02T04:48:41.959Z,1015.7
2022-10-02T04:53:42.005Z,1015.8
2022-10-02T04:58:42.057Z,1015.8
2022-10-02T05:03:41.964Z,1015.9
2022-10-02T05:08:41.945Z,1016.0
2022-10-02T05:13:41.836Z,1016.0
2022-10-02T05:18:42.866Z,1016.2
2022-10-02T05:23:41.827Z,1016.1
2022-10-02T05:28:41.912Z,1016.2
2022-10-02T05:33:45.958Z,1016.3
2022-10-02T05:38:42.478Z,1016.3
2022-10-02T05:43:42.027Z,1016.4
2022-10-02T05:48:41.833Z,1016.4
2022-10-02T05:53:41.728Z,1016.5
2022-10-02T05:58:41.891Z,1016.6
2022-10-02T06:03:41.835Z,1016.6
2022-10-02T06:08:41.749Z,1016.6
2022-10-02T06:13:41.915Z,1016.7
2022-10-02T06:18:41.783Z,1016.7
2022-10-02T06:23:41.820Z,1016.7
2022-10-02T06:28:41.676Z,1016.8
2022-10-02T06:33:41.704Z,1016.8
2022-10-02T06:38:41.760Z,1016.9
2022-10-02T06:43:42.132Z,1017.0
2022-10-02T06:48:41.761Z,1017.0
2022-10-02T06:53:41.763Z,1017.1
2022-10-02T06:58:41.882Z,1017.0
2022-10-02T07:03:41.689Z,1017.0
2022-10-02T07:08:41.688Z,1017.0
2022-10-02T07:13:41.755Z,1017.1
2022-10-02T07:18:41.796Z,1017.1
2022-10-02T07:23:41.801Z,1017.2
2022-10-02T07:28:41.561Z,1017.1
2022-10-02T07:33:41.637Z,1017.1
2022-10-02T07:38:41.671Z,1017.2
2022-10-02T07:43:41.763Z,1017.3
2022-10-02T07:48:41.576Z,1017.3
2022-10-02T07:53:41.761Z,1017.4
2022-10-02T07:58:41.787Z,1017.3
2022-10-02T08:03:41.616Z,1017.4
2022-10-02T08:08:41.578Z,1017.4
2022-10-02T08:13:41.974Z,1017.4
2022-10-02T08:18:41.549Z,1017.3
2022-10-02T08:23:41.485Z,1017.4
2022-10-02T08:28:41.595Z,1017.3
2022-10-02T08:33:41.900Z,1017.3
2022-10-02T08:38:41.625Z,1017.3
2022-10-02T08:43:41.873Z,1017.2
2022-10-02T08:48:41.560Z,1017.3
2022-10-02T08:53:41.681Z,1017.2
2022-10-02T08:58:41.555Z,1017.3
2022-10-02T09:03:41.565Z,1017.4
2022-10-02T09:08:41.596Z,1017.4
2022-10-02T09:13:41.524Z,1017.2
2022-10-02T09:18:41.457Z,1017.2
2022-10-02T09:23:41.720Z,1017.1
2022-10-02T09:28:41.746Z,1017.0
2022-10-02T09:33:41.515Z,1017.0
2022-10-02T09:38:41.721Z,1016.9
2022-10-02T09:43:41.434Z,1016.8
2022-10-02T09:48:41.553Z,1016.8
2022-10-02T09:53:41.703Z,1016.7
2022-10-02T09:58:41.429Z,1016.8
2022-10-02T10:03:41.528Z,1016.7
2022-10-02T10:08:41.513Z,1016.6
2022-10-02T10:13:41.361Z,1016.6
2022-10-02T10:18:41.363Z,1016.7
2022-10-02T10:23:41.493Z,1016.7
2022-10-02T10:28:41.451Z,1016.7
2022-10-02T10:33:41.318Z,1016.6
2022-10-02T10:38:41.347Z,1016.6
2022-10-02T10:43:42.172Z,1016.6
2022-10-02T10:48:44.804Z,1016.5
2022-10-02T10:53:42.067Z,1016.4
2022-10-02T10:58:42.461Z,1016.4
2022-10-02T11:03:41.351Z,1016.4
2022-10-02T11:08:41.989Z,1016.3
2022-10-02T11:13:41.278Z,1016.4
2022-10-02T11:18:41.262Z,1016.2
2022-10-02T11:23:41.357Z,1016.3
2022-10-02T11:28:41.263Z,1016.3
2022-10-02T11:33:41.164Z,1016.3
2022-10-02T11:38:41.318Z,1016.3
2022-10-02T11:43:44.105Z,1016.2
2022-10-02T11:48:41.237Z,1016.3
2022-10-02T11:53:41.313Z,1016.3
2022-10-02T11:58:41.185Z,1016.2
2022-10-02T12:03:41.403Z,1016.1
2022-10-02T12:08:41.364Z,1016.1
2022-10-02T12:13:41.279Z,1016.0
2022-10-02T12:18:42.176Z,1015.9
2022-10-02T12:23:41.170Z,1015.9
2022-10-02T12:28:41.433Z,1015.8
2022-10-02T12:33:41.127Z,1015.8
2022-10-02T12:38:41.314Z,1015.7
2022-10-02T12:43:41.202Z,1015.7
2022-10-02T12:48:41.540Z,1015.6
2022-10-02T12:53:41.536Z,1015.6
2022-10-02T12:58:41.337Z,1015.5
2022-10-02T13:03:41.320Z,1015.7
2022-10-02T13:08:41.251Z,1015.8
2022-10-02T13:13:41.211Z,1015.6
2022-10-02T13:18:41.093Z,1015.7
2022-10-02T13:23:42.166Z,1015.6
2022-10-02T13:28:41.542Z,1015.3
2022-10-02T13:33:41.165Z,1015.3
2022-10-02T13:38:41.292Z,1015.3
2022-10-02T13:43:41.136Z,1015.3
2022-10-02T13:48:41.089Z,1015.3
2022-10-02T13:53:41.395Z,1015.3
2022-10-02T13:58:40.964Z,1015.2
2022-10-02T14:03:41.399Z,1015.2
2022-10-02T14:08:41.585Z,1015.5
2022-10-02T14:13:41.190Z,1015.6
2022-10-02T14:18:41.201Z,1015.4
2022-10-02T14:23:41.332Z,1015.5
2022-10-02T14:28:41.170Z,1015.4
2022-10-02T14:33:41.165Z,1015.2
2022-10-02T14:38:41.859Z,1015.3
2022-10-02T14:43:41.196Z,1015.4
2022-10-02T14:48:43.092Z,1015.3
2022-10-02T14:53:41.950Z,1015.2
2022-10-02T14:58:42.116Z,1015.1
2022-10-02T15:03:42.213Z,1015.0
2022-10-02T15:08:40.997Z,1015.0
2022-10-02T15:13:43.182Z,1015.4
2022-10-02T15:18:41.106Z,1015.7
2022-10-02T15:23:41.012Z,1015.6
2022-10-02T15:28:41.497Z,1015.6
2022-10-02T15:33:40.870Z,1015.1
2022-10-02T15:38:41.034Z,1015.1
2022-10-02T15:43:41.812Z,1015.2
2022-10-02T15:48:43.682Z,1015.3
2022-10-02T15:53:40.902Z,1015.3
2022-10-02T15:58:41.266Z,1015.2
2022-10-02T16:03:41.152Z,1015.2
2022-10-02T16:08:41.153Z,1015.2
2022-10-02T16:13:46.319Z,1015.2
2022-10-02T16:18:40.956Z,1015.1
2022-10-02T16:23:41.131Z,1015.1
2022-10-02T16:28:42.021Z,1015.0
2022-10-02T16:33:40.875Z,1015.0
2022-10-02T16:38:40.767Z,1015.0
2022-10-02T16:43:40.956Z,1015.0
2022-10-02T16:48:41.015Z,1014.9
2022-10-02T16:53:40.882Z,1015.0
2022-10-02T16:58:40.785Z,1014.9
2022-10-02T17:03:40.796Z,1014.9
2022-10-02T17:08:41.119Z,1014.9
2022-10-02T17:13:40.909Z,1014.9
2022-10-02T17:18:42.922Z,1014.8
2022-10-02T17:23:41.930Z,1014.7
2022-10-02T17:28:42.134Z,1014.7
2022-10-02T17:33:40.929Z,1014.7
2022-10-02T17:38:41.578Z,1014.8
2022-10-02T17:43:40.692Z,1014.7
2022-10-02T17:48:40.827Z,1014.7
2022-10-02T17:53:41.951Z,1014.7
2022-10-02T17:58:41.328Z,1014.8
2022-10-02T18:03:40.730Z,1015.6
2022-10-02T18:08:40.769Z,1015.6
2022-10-02T18:13:42.066Z,1015.6
2022-10-02T18:18:40.677Z,1015.6
2022-10-02T18:23:40.671Z,1015.2
2022-10-02T18:28:40.935Z,1015.3
2022-10-02T18:33:40.523Z,1015.1
2022-10-02T18:38:40.572Z,1015.1
2022-10-02T18:43:40.850Z,1015.2
2022-10-02T18:48:40.503Z,1015.2
2022-10-02T18:53:40.461Z,1015.3
2022-10-02T18:58:40.624Z,1015.3
2022-10-02T19:03:40.456Z,1015.4
2022-10-02T19:08:40.880Z,1015.4
2022-10-02T19:13:40.826Z,1015.4
2022-10-02T19:18:40.620Z,1015.5
2022-10-02T19:23:40.627Z,1015.5
2022-10-02T19:28:40.919Z,1015.5
2022-10-02T19:38:40.821Z,1015.6
2022-10-02T19:43:40.417Z,1015.5
2022-10-02T19:48:40.451Z,1015.6
2022-10-02T19:53:40.824Z,1015.6
2022-10-02T19:58:40.610Z,1015.7
2022-10-02T20:03:40.477Z,1015.7
2022-10-02T20:08:40.485Z,1015.7
2022-10-02T20:13:40.362Z,1015.7
2022-10-02T20:18:40.364Z,1015.7
2022-10-02T20:23:40.860Z,1015.7
2022-10-02T20:28:40.347Z,1015.6
2022-10-02T20:33:40.913Z,1015.6
2022-10-02T20:38:40.452Z,1015.7
2022-10-02T20:43:40.325Z,1015.7
2022-10-02T20:49:06.374Z,1015.7
2022-10-02T20:53:40.383Z,1015.8
2022-10-02T20:58:40.313Z,1015.8
2022-10-02T21:03:40.389Z,1015.9
2022-10-02T21:08:40.358Z,1015.9
2022-10-02T21:13:40.326Z,1015.9
2022-10-02T21:18:40.305Z,1015.9
2022-10-02T21:23:40.467Z,1015.8
2022-10-02T21:28:40.226Z,1015.9
2022-10-02T21:33:40.230Z,1015.9
2022-10-02T21:38:40.313Z,1015.9
2022-10-02T21:43:40.191Z,1015.9
2022-10-02T21:48:40.240Z,1016.1
2022-10-02T21:53:40.291Z,1016.0
2022-10-02T21:58:40.186Z,1016.0
2022-10-02T22:03:40.235Z,1016.0
2022-10-02T22:08:40.323Z,1016.0
2022-10-02T22:13:40.127Z,1016.1
2022-10-02T22:18:40.132Z,1016.1
2022-10-02T22:23:40.303Z,1016.2
2022-10-02T22:28:40.196Z,1016.3
2022-10-02T22:33:40.127Z,1016.2
2022-10-02T22:38:40.373Z,1016.2
2022-10-02T22:43:40.131Z,1016.2
2022-10-02T22:48:40.402Z,1016.2
2022-10-02T22:53:40.458Z,1016.3
2022-10-02T22:58:40.055Z,1016.3
2022-10-02T23:03:40.063Z,1016.4
2022-10-02T23:08:40.198Z,1016.4
2022-10-02T23:13:40.083Z,1016.4
2022-10-02T23:18:40.010Z,1016.4
2022-10-02T23:23:40.152Z,1016.5
2022-10-02T23:28:40.032Z,1016.5
2022-10-02T23:33:39.997Z,1016.6
2022-10-02T23:38:40.218Z,1016.6
2022-10-02T23:43:40.031Z,1016.6
2022-10-02T23:48:40.026Z,1016.6
2022-10-02T23:53:40.217Z,1016.6
2022-10-02T23:58:39.964Z,1016.6
